Terminal Aerodrome Forecast
Issued by NWS Sterling, VA

Current Version | Previous Version | Text Only | Print | Product List | Glossary On
Versions: 1 2 3 4 5 6 7 8 9 10 11
000
FTUS41 KLWX 272339
TAFCHO
TAF
KCHO 272339Z 2800/2824 05006KT P6SM SCT060
     FM280400 VRB03KT P6SM BKN150
     FM281700 13004KT P6SM BKN150=

USA.gov is the U.S. government's official web portal to all federal, state and local government web resources and services.